createdAt,value
2019-05-25T09:36:15.658Z,99.90
2019-05-25T09:38:44.053Z,99.90
2019-05-25T09:41:12.469Z,99.90
2019-05-25T09:43:40.873Z,99.90
2019-05-25T09:46:09.297Z,99.90
2019-05-25T09:48:38.452Z,99.90
2019-05-25T09:51:15.345Z,99.90
2019-05-25T09:53:37.495Z,99.90
2019-05-25T09:56:05.904Z,99.10
2019-05-25T09:58:34.297Z,99.40
2019-05-25T10:01:03.120Z,99.60
2019-05-25T10:03:31.621Z,99.90
2019-05-25T10:06:00.048Z,99.90
2019-05-25T10:08:28.514Z,99.90
2019-05-25T10:10:56.925Z,99.40
2019-05-25T10:13:25.325Z,99.90
2019-05-25T10:15:53.794Z,99.90
2019-05-25T10:18:22.197Z,99.00
2019-05-25T10:20:50.611Z,99.50
2019-05-25T10:23:19.014Z,99.90
2019-05-25T10:25:47.689Z,99.70
2019-05-25T10:28:16.153Z,99.90
2019-05-25T10:30:44.624Z,99.90
2019-05-25T10:33:13.346Z,99.80
2019-05-25T10:35:41.769Z,99.20
2019-05-25T10:38:10.173Z,99.20
2019-05-25T10:40:38.912Z,99.00
2019-05-25T10:43:07.305Z,99.90
2019-05-25T10:45:35.979Z,99.90
2019-05-25T10:48:04.869Z,99.90
2019-05-25T10:50:33.283Z,99.90
2019-05-25T10:53:01.687Z,99.60
2019-05-25T10:55:30.103Z,99.60
2019-05-25T10:57:58.669Z,99.00
2019-05-25T11:00:27.317Z,98.70
2019-05-25T11:02:55.733Z,99.90
2019-05-25T11:05:24.388Z,99.70
2019-05-25T11:07:53.073Z,99.90
2019-05-25T11:10:21.649Z,99.90
2019-05-25T11:12:50.354Z,99.90
2019-05-25T11:15:18.887Z,99.90
2019-05-25T11:17:47.288Z,99.70
2019-05-25T11:20:16.539Z,99.70
2019-05-25T11:22:44.939Z,99.60
2019-05-25T11:25:14.189Z,99.30
2019-05-25T11:27:42.589Z,99.80
2019-05-25T11:30:13.042Z,99.80
2019-05-25T11:32:41.522Z,98.50
2019-05-25T11:35:10.169Z,99.30
2019-05-25T11:37:38.970Z,98.50
2019-05-25T11:40:09.536Z,99.80
2019-05-25T11:42:37.993Z,99.90
2019-05-25T11:45:07.541Z,99.50
2019-05-25T11:47:35.971Z,99.40
2019-05-25T11:50:07.568Z,99.60
2019-05-25T11:52:35.982Z,99.80
2019-05-25T11:55:07.511Z,99.80
2019-05-25T11:57:35.905Z,99.80
2019-05-25T12:00:23.813Z,99.70
2019-05-25T12:02:39.681Z,99.60
2019-05-25T12:05:09.460Z,99.40
2019-05-25T12:07:37.866Z,98.90
2019-05-25T12:10:07.336Z,99.40
2019-05-25T12:12:36.069Z,99.50
2019-05-25T12:15:09.262Z,99.20
2019-05-25T12:17:37.720Z,98.80
2019-05-25T12:20:06.970Z,99.40
2019-05-25T12:22:35.665Z,99.30
2019-05-25T12:25:06.313Z,99.10
2019-05-25T12:27:35.070Z,99.50
2019-05-25T12:30:05.556Z,99.50
2019-05-25T12:32:33.951Z,99.30
2019-05-25T12:35:02.665Z,99.60
2019-05-25T12:37:31.354Z,99.50
2019-05-25T12:39:59.748Z,99.10
2019-05-25T12:42:28.162Z,99.60
2019-05-25T12:44:56.811Z,99.00
2019-05-25T12:47:25.218Z,99.60
2019-05-25T12:49:53.881Z,99.40
2019-05-25T12:52:22.292Z,98.80
2019-05-25T12:54:50.692Z,99.00
2019-05-25T12:57:19.283Z,99.80
2019-05-25T12:59:47.922Z,98.70
2019-05-25T13:02:16.618Z,99.50
2019-05-25T13:04:45.013Z,99.50
2019-05-25T13:07:13.692Z,99.30
2019-05-25T13:09:42.377Z,99.00
2019-05-25T13:12:11.062Z,98.90
2019-05-25T13:14:39.456Z,98.70
2019-05-25T13:17:07.869Z,98.30
2019-05-25T13:19:36.518Z,98.30
2019-05-25T13:22:04.962Z,97.80
2019-05-25T13:24:33.696Z,98.50
2019-05-25T13:27:02.112Z,97.70
2019-05-25T13:29:30.509Z,97.30
2019-05-25T13:31:58.917Z,97.30
2019-05-25T13:34:27.321Z,97.50
2019-05-25T13:36:56.018Z,97.40
2019-05-25T13:39:24.703Z,96.70
2019-05-25T13:41:53.109Z,96.20
2019-05-25T13:44:21.775Z,97.00
2019-05-25T13:46:50.681Z,95.80
2019-05-25T13:49:19.085Z,96.00
2019-05-25T13:51:47.498Z,96.00
2019-05-25T13:54:16.238Z,95.40
2019-05-25T13:56:44.644Z,96.50
2019-05-25T13:59:13.212Z,96.30
2019-05-25T14:01:41.691Z,96.90
2019-05-25T14:04:10.090Z,97.20
2019-05-25T14:06:38.495Z,97.10
2019-05-25T14:09:07.059Z,97.30
2019-05-25T14:11:35.541Z,96.80
2019-05-25T14:14:04.209Z,97.00
2019-05-25T14:16:32.633Z,96.50
2019-05-25T14:19:01.033Z,97.30
2019-05-25T14:21:29.512Z,97.30
2019-05-25T14:23:57.912Z,96.60
2019-05-25T14:26:26.334Z,97.50
2019-05-25T14:28:54.730Z,97.30
2019-05-25T14:31:23.155Z,97.20
2019-05-25T14:33:51.901Z,97.20
2019-05-25T14:36:20.310Z,97.20
2019-05-25T14:38:48.716Z,96.60
2019-05-25T14:41:17.450Z,96.20
2019-05-25T14:43:46.125Z,97.30
2019-05-25T14:46:26.825Z,97.30
2019-05-25T14:48:44.937Z,97.30
2019-05-25T14:51:13.349Z,96.90
2019-05-25T14:53:42.011Z,97.10
2019-05-25T14:56:10.426Z,97.10
2019-05-25T14:58:39.157Z,97.10
2019-05-25T15:01:07.995Z,97.10
2019-05-25T15:03:36.764Z,97.00
2019-05-25T15:06:05.177Z,97.10
2019-05-25T15:08:33.578Z,97.00
2019-05-25T15:11:02.337Z,97.30
2019-05-25T15:13:30.755Z,97.30
2019-05-25T15:15:59.155Z,97.40
2019-05-25T15:18:27.642Z,97.30
2019-05-25T15:20:56.054Z,97.40
2019-05-25T15:23:24.453Z,97.40
2019-05-25T15:25:52.848Z,97.20
2019-05-25T15:28:21.262Z,97.30
2019-05-25T15:30:49.656Z,97.20
2019-05-25T15:33:18.379Z,97.20
2019-05-25T15:35:46.781Z,96.90
2019-05-25T15:38:15.468Z,96.50
2019-05-25T15:40:43.862Z,96.90
2019-05-25T15:43:12.626Z,96.50
2019-05-25T15:45:41.030Z,96.70
2019-05-25T15:48:09.517Z,96.80
2019-05-25T15:50:38.187Z,96.70
2019-05-25T15:53:06.705Z,96.40
2019-05-25T15:55:35.140Z,97.20
2019-05-25T15:58:03.630Z,96.90
2019-05-25T16:00:50.062Z,95.60
2019-05-25T16:03:20.004Z,96.10
2019-05-25T16:05:48.925Z,95.80
2019-05-25T16:08:18.985Z,96.50
2019-05-25T16:10:53.730Z,96.90
2019-05-25T16:13:22.140Z,97.00
2019-05-25T16:15:50.546Z,96.30
2019-05-25T16:18:18.950Z,96.40
2019-05-25T16:20:47.352Z,96.60
2019-05-25T16:23:15.773Z,97.20
2019-05-25T16:25:44.498Z,96.80
2019-05-25T16:28:12.938Z,97.00
2019-05-25T16:30:41.337Z,96.80
2019-05-25T16:33:12.856Z,96.90
2019-05-25T16:35:40.708Z,97.20
2019-05-25T16:38:09.245Z,97.10
2019-05-25T16:40:38.361Z,97.10
2019-05-25T16:43:06.768Z,96.70
2019-05-25T16:45:35.173Z,96.90
2019-05-25T16:48:03.953Z,96.90
2019-05-25T16:50:32.618Z,97.00
2019-05-25T16:53:01.209Z,96.90
2019-05-25T16:55:29.609Z,96.60
2019-05-25T16:57:58.096Z,96.10
2019-05-25T17:00:28.222Z,96.90
2019-05-25T17:02:58.825Z,96.90
2019-05-25T17:05:27.939Z,96.30
2019-05-25T17:07:56.954Z,95.60
2019-05-25T17:10:25.425Z,96.20
2019-05-25T17:12:53.833Z,96.30
2019-05-25T17:15:22.481Z,96.20
2019-05-25T17:17:50.992Z,96.60
2019-05-25T17:20:19.924Z,97.20
2019-05-25T17:22:48.654Z,95.60
2019-05-25T17:25:17.190Z,95.50
2019-05-25T17:27:45.605Z,96.10
2019-05-25T17:30:15.063Z,96.30
2019-05-25T17:32:43.721Z,96.60
2019-05-25T17:35:13.573Z,97.10
2019-05-25T17:37:41.983Z,96.90
2019-05-25T17:40:10.566Z,96.70
2019-05-25T17:42:39.081Z,97.50
2019-05-25T17:45:07.815Z,97.00
2019-05-25T17:47:36.296Z,97.40
2019-05-25T17:50:06.368Z,97.60
2019-05-25T17:52:34.837Z,97.50
2019-05-25T17:55:04.703Z,98.00
2019-05-25T17:57:33.495Z,97.70
2019-05-25T18:00:01.906Z,98.00
2019-05-25T18:02:30.651Z,97.70
2019-05-25T18:04:59.064Z,97.70
2019-05-25T18:07:27.829Z,97.90
2019-05-25T18:09:56.228Z,98.20
2019-05-25T18:12:24.645Z,98.40
2019-05-25T18:14:53.055Z,98.20
2019-05-25T18:17:21.458Z,98.20
2019-05-25T18:19:49.869Z,98.10
2019-05-25T18:22:18.630Z,97.50
2019-05-25T18:24:47.024Z,98.10
2019-05-25T18:27:15.445Z,98.30
2019-05-25T18:29:43.871Z,98.20
2019-05-25T18:32:12.360Z,98.50
2019-05-25T18:34:40.775Z,98.80
2019-05-25T18:37:09.161Z,99.00
2019-05-25T18:39:37.564Z,99.40
2019-05-25T18:42:06.707Z,99.20
2019-05-25T18:44:35.121Z,99.70
2019-05-25T18:47:03.524Z,99.90
2019-05-25T18:49:31.933Z,99.90
2019-05-25T18:52:00.683Z,99.90
2019-05-25T18:54:29.089Z,99.90
2019-05-25T18:56:57.489Z,99.90
2019-05-25T18:59:26.213Z,99.90
2019-05-25T19:01:54.647Z,99.90
2019-05-25T19:04:42.287Z,99.90
2019-05-25T19:06:53.231Z,99.90
2019-05-25T19:09:21.639Z,99.90
2019-05-25T19:11:50.386Z,99.90
2019-05-25T19:14:19.189Z,99.90
2019-05-25T19:16:47.585Z,99.90
2019-05-25T19:19:15.995Z,99.90
2019-05-25T19:21:44.405Z,99.90
2019-05-25T19:24:13.109Z,99.90
2019-05-25T19:26:41.830Z,99.90
2019-05-25T19:29:10.609Z,99.90
2019-05-25T19:31:39.402Z,99.90
2019-05-25T19:34:08.077Z,99.90
2019-05-25T19:36:36.865Z,99.90
2019-05-25T19:39:07.854Z,99.90
2019-05-25T19:41:36.253Z,99.90
2019-05-25T19:44:04.904Z,99.90
2019-05-25T19:46:33.307Z,99.90
2019-05-25T19:49:01.773Z,99.90
2019-05-25T19:51:30.185Z,99.90
2019-05-25T19:53:58.597Z,99.90
2019-05-25T19:56:26.998Z,99.90
2019-05-25T19:58:55.680Z,99.90
2019-05-25T20:01:24.391Z,99.90
2019-05-25T20:03:57.000Z,99.90
2019-05-25T20:06:23.315Z,99.90
2019-05-25T20:08:51.969Z,99.90
2019-05-25T20:11:20.661Z,99.90
2019-05-25T20:13:49.081Z,99.90
2019-05-25T20:16:17.497Z,99.90
2019-05-25T20:18:45.922Z,99.90
2019-05-25T20:21:14.350Z,99.90
2019-05-25T20:23:42.768Z,99.90
2019-05-25T20:26:11.161Z,99.90
2019-05-25T20:28:39.585Z,99.90
2019-05-25T20:31:08.095Z,99.90
2019-05-25T20:33:36.777Z,99.90
2019-05-25T20:36:24.846Z,99.90
2019-05-25T20:38:53.269Z,99.90
2019-05-25T20:41:21.664Z,99.90
2019-05-25T20:43:50.121Z,99.90
2019-05-25T20:46:18.549Z,99.90
2019-05-25T20:49:06.306Z,99.90
2019-05-25T20:51:34.716Z,99.90
2019-05-25T20:54:03.130Z,99.90
2019-05-25T20:56:31.565Z,99.90
2019-05-25T20:58:59.992Z,99.90
2019-05-25T21:01:28.397Z,99.90
2019-05-25T21:03:56.812Z,99.90
2019-05-25T21:06:25.493Z,99.90
2019-05-25T21:08:53.904Z,99.90
2019-05-25T21:11:22.312Z,99.90
2019-05-25T21:13:50.746Z,99.90
2019-05-25T21:16:19.438Z,99.90
2019-05-25T21:18:47.862Z,99.90
2019-05-25T21:21:16.257Z,99.90
2019-05-25T21:23:44.666Z,99.90
2019-05-25T21:26:13.069Z,99.90
2019-05-25T21:28:41.484Z,99.90
2019-05-25T21:31:09.882Z,99.90
2019-05-25T21:33:38.292Z,99.90
2019-05-25T21:36:08.855Z,99.90
2019-05-25T21:38:36.840Z,99.90
2019-05-25T21:41:05.245Z,99.90
2019-05-25T21:43:34.208Z,99.90
2019-05-25T21:46:02.617Z,99.90
2019-05-25T21:48:31.285Z,99.90
2019-05-25T21:50:59.703Z,99.90
2019-05-25T21:53:28.176Z,99.90
2019-05-25T21:55:56.593Z,99.90
2019-05-25T21:58:24.993Z,99.90
2019-05-25T22:00:53.805Z,99.90
2019-05-25T22:03:22.485Z,99.90
2019-05-25T22:05:51.191Z,99.90
2019-05-25T22:08:19.869Z,99.90
2019-05-25T22:10:48.281Z,99.90
2019-05-25T22:13:28.081Z,99.90
2019-05-25T22:15:46.816Z,99.90
2019-05-25T22:18:15.228Z,99.90
2019-05-25T22:20:43.934Z,99.90
2019-05-25T22:23:12.338Z,99.90
2019-05-25T22:25:41.102Z,99.90
2019-05-25T22:28:09.524Z,99.90
2019-05-25T22:30:38.277Z,99.90
2019-05-25T22:33:06.680Z,99.90
2019-05-25T22:35:35.097Z,99.90
2019-05-25T22:38:03.849Z,99.90
2019-05-25T22:40:32.539Z,99.90
2019-05-25T22:43:01.217Z,99.90
2019-05-25T22:45:29.635Z,99.90
2019-05-25T22:47:58.046Z,99.90
2019-05-25T22:50:26.457Z,99.90
2019-05-25T22:52:54.865Z,99.90
2019-05-25T22:55:23.546Z,99.90
2019-05-25T22:57:52.245Z,99.90
2019-05-25T23:00:20.892Z,99.90
2019-05-25T23:02:49.541Z,99.90
2019-05-25T23:05:18.290Z,99.90
2019-05-25T23:07:46.986Z,99.90
2019-05-25T23:10:16.017Z,99.90
2019-05-25T23:12:44.420Z,99.90
2019-05-25T23:15:13.417Z,99.90
2019-05-25T23:17:41.818Z,99.90
2019-05-25T23:20:10.869Z,99.90
2019-05-25T23:22:39.336Z,99.90
2019-05-25T23:25:08.910Z,99.90
2019-05-25T23:27:37.639Z,99.90
2019-05-25T23:30:07.589Z,99.90
2019-05-25T23:32:36.005Z,99.90
2019-05-25T23:35:05.357Z,99.90
2019-05-25T23:37:33.900Z,99.90
2019-05-25T23:40:02.317Z,99.90
2019-05-25T23:42:30.721Z,99.90
2019-05-25T23:44:59.128Z,99.90
2019-05-25T23:47:27.542Z,99.90
2019-05-25T23:49:59.523Z,99.90
2019-05-25T23:52:26.148Z,99.90
2019-05-25T23:54:54.690Z,99.90
2019-05-25T23:57:23.545Z,99.90
2019-05-25T23:59:51.964Z,99.90
